sensor_id;sensor_type;location;lat;lon;timestamp;P1;durP1;ratioP1;P2;durP2;ratioP2
18196;SDS011;9224;52.422;13.024;2024-03-08T00:00:15;613.85;;;174.82;;
18196;SDS011;9224;52.422;13.024;2024-03-08T00:02:43;620.60;;;176.88;;
18196;SDS011;9224;52.422;13.024;2024-03-08T00:05:10;627.75;;;183.25;;
18196;SDS011;9224;52.422;13.024;2024-03-08T00:07:38;620.80;;;178.13;;
18196;SDS011;9224;52.422;13.024;2024-03-08T00:10:05;619.67;;;172.77;;
18196;SDS011;9224;52.422;13.024;2024-03-08T00:12:36;617.80;;;174.02;;
18196;SDS011;9224;52.422;13.024;2024-03-08T00:15:04;612.60;;;171.88;;
18196;SDS011;9224;52.422;13.024;2024-03-08T00:17:32;616.08;;;171.63;;
18196;SDS011;9224;52.422;13.024;2024-03-08T00:19:59;622.35;;;178.02;;
18196;SDS011;9224;52.422;13.024;2024-03-08T00:22:25;623.03;;;178.73;;
18196;SDS011;9224;52.422;13.024;2024-03-08T00:24:52;623.67;;;177.38;;
18196;SDS011;9224;52.422;13.024;2024-03-08T00:27:19;628.97;;;180.63;;
18196;SDS011;9224;52.422;13.024;2024-03-08T00:29:46;626.50;;;179.13;;
18196;SDS011;9224;52.422;13.024;2024-03-08T00:32:14;623.90;;;177.35;;
18196;SDS011;9224;52.422;13.024;2024-03-08T00:34:42;626.33;;;179.93;;
18196;SDS011;9224;52.422;13.024;2024-03-08T00:37:09;626.15;;;180.95;;
18196;SDS011;9224;52.422;13.024;2024-03-08T00:39:35;644.55;;;203.23;;
18196;SDS011;9224;52.422;13.024;2024-03-08T00:42:02;633.65;;;194.20;;
18196;SDS011;9224;52.422;13.024;2024-03-08T00:44:28;633.67;;;195.02;;
18196;SDS011;9224;52.422;13.024;2024-03-08T00:46:56;636.28;;;194.57;;
18196;SDS011;9224;52.422;13.024;2024-03-08T00:49:25;651.85;;;202.75;;
18196;SDS011;9224;52.422;13.024;2024-03-08T00:51:52;645.78;;;204.40;;
18196;SDS011;9224;52.422;13.024;2024-03-08T00:54:18;657.08;;;203.82;;
18196;SDS011;9224;52.422;13.024;2024-03-08T00:56:45;652.88;;;206.63;;
18196;SDS011;9224;52.422;13.024;2024-03-08T00:59:12;672.55;;;216.13;;
18196;SDS011;9224;52.422;13.024;2024-03-08T01:01:39;652.33;;;203.85;;
18196;SDS011;9224;52.422;13.024;2024-03-08T01:04:06;663.67;;;208.15;;
18196;SDS011;9224;52.422;13.024;2024-03-08T01:06:34;657.67;;;204.95;;
18196;SDS011;9224;52.422;13.024;2024-03-08T01:09:01;646.38;;;202.75;;
18196;SDS011;9224;52.422;13.024;2024-03-08T01:11:28;665.17;;;209.20;;
18196;SDS011;9224;52.422;13.024;2024-03-08T01:13:54;658.78;;;203.07;;
18196;SDS011;9224;52.422;13.024;2024-03-08T01:16:21;656.78;;;206.23;;
18196;SDS011;9224;52.422;13.024;2024-03-08T01:18:47;646.72;;;201.10;;
18196;SDS011;9224;52.422;13.024;2024-03-08T01:21:15;680.08;;;213.60;;
18196;SDS011;9224;52.422;13.024;2024-03-08T01:23:43;679.80;;;213.80;;
18196;SDS011;9224;52.422;13.024;2024-03-08T01:26:09;683.13;;;213.90;;
18196;SDS011;9224;52.422;13.024;2024-03-08T01:28:36;690.25;;;218.45;;
18196;SDS011;9224;52.422;13.024;2024-03-08T01:31:03;701.63;;;222.95;;
18196;SDS011;9224;52.422;13.024;2024-03-08T01:33:31;699.45;;;223.15;;
18196;SDS011;9224;52.422;13.024;2024-03-08T01:35:57;687.08;;;216.63;;
18196;SDS011;9224;52.422;13.024;2024-03-08T01:38:24;699.35;;;220.40;;
18196;SDS011;9224;52.422;13.024;2024-03-08T01:40:52;684.38;;;220.52;;
18196;SDS011;9224;52.422;13.024;2024-03-08T01:43:19;712.28;;;224.85;;
18196;SDS011;9224;52.422;13.024;2024-03-08T01:45:45;715.97;;;222.25;;
18196;SDS011;9224;52.422;13.024;2024-03-08T01:48:12;729.88;;;233.65;;
18196;SDS011;9224;52.422;13.024;2024-03-08T01:50:40;730.15;;;232.45;;
18196;SDS011;9224;52.422;13.024;2024-03-08T01:53:07;716.30;;;225.25;;
18196;SDS011;9224;52.422;13.024;2024-03-08T01:55:35;702.13;;;223.70;;
18196;SDS011;9224;52.422;13.024;2024-03-08T01:58:03;728.95;;;230.48;;
18196;SDS011;9224;52.422;13.024;2024-03-08T02:00:31;729.92;;;232.50;;
18196;SDS011;9224;52.422;13.024;2024-03-08T02:02:58;731.25;;;231.18;;
18196;SDS011;9224;52.422;13.024;2024-03-08T02:05:25;718.08;;;227.43;;
18196;SDS011;9224;52.422;13.024;2024-03-08T02:07:51;711.75;;;232.18;;
18196;SDS011;9224;52.422;13.024;2024-03-08T02:10:18;753.53;;;239.13;;
18196;SDS011;9224;52.422;13.024;2024-03-08T02:12:47;750.72;;;237.15;;
18196;SDS011;9224;52.422;13.024;2024-03-08T02:15:15;737.45;;;233.52;;
18196;SDS011;9224;52.422;13.024;2024-03-08T02:17:41;743.40;;;238.45;;
18196;SDS011;9224;52.422;13.024;2024-03-08T02:20:09;760.50;;;240.82;;
18196;SDS011;9224;52.422;13.024;2024-03-08T02:22:39;838.22;;;243.05;;
18196;SDS011;9224;52.422;13.024;2024-03-08T02:25:06;791.03;;;243.30;;
18196;SDS011;9224;52.422;13.024;2024-03-08T02:27:34;849.90;;;249.02;;
18196;SDS011;9224;52.422;13.024;2024-03-08T02:30:01;836.30;;;246.73;;
18196;SDS011;9224;52.422;13.024;2024-03-08T02:32:27;862.88;;;247.02;;
18196;SDS011;9224;52.422;13.024;2024-03-08T02:34:56;768.22;;;242.23;;
18196;SDS011;9224;52.422;13.024;2024-03-08T02:37:24;822.15;;;242.98;;
18196;SDS011;9224;52.422;13.024;2024-03-08T02:39:53;820.03;;;241.05;;
18196;SDS011;9224;52.422;13.024;2024-03-08T02:42:20;833.83;;;236.82;;
18196;SDS011;9224;52.422;13.024;2024-03-08T02:44:46;844.72;;;239.57;;
18196;SDS011;9224;52.422;13.024;2024-03-08T02:47:13;864.78;;;236.20;;
18196;SDS011;9224;52.422;13.024;2024-03-08T02:49:40;849.28;;;233.63;;
18196;SDS011;9224;52.422;13.024;2024-03-08T02:52:07;865.47;;;237.13;;
18196;SDS011;9224;52.422;13.024;2024-03-08T02:54:33;856.50;;;240.23;;
18196;SDS011;9224;52.422;13.024;2024-03-08T02:57:03;830.00;;;235.55;;
18196;SDS011;9224;52.422;13.024;2024-03-08T02:59:32;829.22;;;235.70;;
18196;SDS011;9224;52.422;13.024;2024-03-08T03:01:59;874.60;;;240.75;;
18196;SDS011;9224;52.422;13.024;2024-03-08T03:04:26;867.70;;;242.77;;
18196;SDS011;9224;52.422;13.024;2024-03-08T03:06:52;865.22;;;238.90;;
18196;SDS011;9224;52.422;13.024;2024-03-08T03:09:19;859.13;;;236.65;;
18196;SDS011;9224;52.422;13.024;2024-03-08T03:11:49;846.58;;;240.02;;
18196;SDS011;9224;52.422;13.024;2024-03-08T03:14:17;875.13;;;237.20;;
18196;SDS011;9224;52.422;13.024;2024-03-08T03:16:44;850.63;;;234.07;;
18196;SDS011;9224;52.422;13.024;2024-03-08T03:19:11;861.03;;;238.98;;
18196;SDS011;9224;52.422;13.024;2024-03-08T03:21:37;843.30;;;239.50;;
18196;SDS011;9224;52.422;13.024;2024-03-08T03:24:04;851.55;;;239.45;;
18196;SDS011;9224;52.422;13.024;2024-03-08T03:26:35;886.33;;;237.38;;
18196;SDS011;9224;52.422;13.024;2024-03-08T03:29:02;867.30;;;235.40;;
18196;SDS011;9224;52.422;13.024;2024-03-08T03:31:32;862.47;;;238.82;;
18196;SDS011;9224;52.422;13.024;2024-03-08T03:33:59;878.10;;;237.30;;
18196;SDS011;9224;52.422;13.024;2024-03-08T03:36:28;882.22;;;235.93;;
18196;SDS011;9224;52.422;13.024;2024-03-08T03:38:54;896.67;;;233.65;;
18196;SDS011;9224;52.422;13.024;2024-03-08T03:41:30;906.35;;;230.70;;
18196;SDS011;9224;52.422;13.024;2024-03-08T03:43:56;895.28;;;232.30;;
18196;SDS011;9224;52.422;13.024;2024-03-08T03:46:24;909.08;;;229.40;;
18196;SDS011;9224;52.422;13.024;2024-03-08T03:48:53;720.58;;;355.70;;
18196;SDS011;9224;52.422;13.024;2024-03-08T03:51:20;892.58;;;232.88;;
18196;SDS011;9224;52.422;13.024;2024-03-08T03:53:47;857.65;;;233.43;;
18196;SDS011;9224;52.422;13.024;2024-03-08T03:56:13;541.17;;;183.57;;
18196;SDS011;9224;52.422;13.024;2024-03-08T03:58:40;836.13;;;239.30;;
18196;SDS011;9224;52.422;13.024;2024-03-08T04:01:07;443.70;;;156.93;;
18196;SDS011;9224;52.422;13.024;2024-03-08T04:03:34;805.47;;;222.68;;
18196;SDS011;9224;52.422;13.024;2024-03-08T04:06:03;858.95;;;264.95;;
18196;SDS011;9224;52.422;13.024;2024-03-08T04:08:30;619.17;;;231.83;;
18196;SDS011;9224;52.422;13.024;2024-03-08T04:10:59;828.88;;;237.55;;
18196;SDS011;9224;52.422;13.024;2024-03-08T04:13:26;836.85;;;239.60;;
18196;SDS011;9224;52.422;13.024;2024-03-08T04:15:52;908.90;;;230.93;;
18196;SDS011;9224;52.422;13.024;2024-03-08T04:18:19;819.17;;;239.25;;
18196;SDS011;9224;52.422;13.024;2024-03-08T04:20:46;780.95;;;380.02;;
18196;SDS011;9224;52.422;13.024;2024-03-08T04:23:14;790.80;;;234.75;;
18196;SDS011;9224;52.422;13.024;2024-03-08T04:25:41;817.95;;;240.00;;
18196;SDS011;9224;52.422;13.024;2024-03-08T04:28:08;845.50;;;235.27;;
18196;SDS011;9224;52.422;13.024;2024-03-08T04:30:36;825.63;;;236.10;;
18196;SDS011;9224;52.422;13.024;2024-03-08T04:33:04;875.92;;;235.60;;
18196;SDS011;9224;52.422;13.024;2024-03-08T04:35:32;845.38;;;239.57;;
18196;SDS011;9224;52.422;13.024;2024-03-08T04:37:58;854.80;;;236.52;;
18196;SDS011;9224;52.422;13.024;2024-03-08T04:40:26;842.05;;;235.68;;
18196;SDS011;9224;52.422;13.024;2024-03-08T04:42:53;859.88;;;240.35;;
18196;SDS011;9224;52.422;13.024;2024-03-08T04:45:20;861.50;;;238.35;;
18196;SDS011;9224;52.422;13.024;2024-03-08T04:47:46;860.75;;;237.57;;
18196;SDS011;9224;52.422;13.024;2024-03-08T04:50:13;869.15;;;238.80;;
18196;SDS011;9224;52.422;13.024;2024-03-08T04:52:40;885.70;;;240.93;;
18196;SDS011;9224;52.422;13.024;2024-03-08T04:55:06;867.20;;;240.88;;
18196;SDS011;9224;52.422;13.024;2024-03-08T04:57:36;855.78;;;243.88;;
18196;SDS011;9224;52.422;13.024;2024-03-08T05:00:02;853.72;;;237.98;;
18196;SDS011;9224;52.422;13.024;2024-03-08T05:02:35;842.75;;;245.52;;
18196;SDS011;9224;52.422;13.024;2024-03-08T05:05:04;856.67;;;239.38;;
18196;SDS011;9224;52.422;13.024;2024-03-08T05:07:32;865.33;;;243.52;;
18196;SDS011;9224;52.422;13.024;2024-03-08T05:09:58;854.05;;;241.23;;
18196;SDS011;9224;52.422;13.024;2024-03-08T05:12:25;856.55;;;244.93;;
18196;SDS011;9224;52.422;13.024;2024-03-08T05:14:53;859.92;;;243.38;;
18196;SDS011;9224;52.422;13.024;2024-03-08T05:17:20;869.33;;;245.10;;
18196;SDS011;9224;52.422;13.024;2024-03-08T05:19:49;869.53;;;241.10;;
18196;SDS011;9224;52.422;13.024;2024-03-08T05:22:15;874.15;;;244.25;;
18196;SDS011;9224;52.422;13.024;2024-03-08T05:24:42;872.78;;;242.23;;
18196;SDS011;9224;52.422;13.024;2024-03-08T05:27:09;884.10;;;240.52;;
18196;SDS011;9224;52.422;13.024;2024-03-08T05:29:36;861.50;;;238.55;;
18196;SDS011;9224;52.422;13.024;2024-03-08T05:32:04;871.83;;;236.30;;
18196;SDS011;9224;52.422;13.024;2024-03-08T05:34:32;892.38;;;236.30;;
18196;SDS011;9224;52.422;13.024;2024-03-08T05:36:58;879.67;;;241.20;;
18196;SDS011;9224;52.422;13.024;2024-03-08T05:39:26;880.33;;;240.45;;
18196;SDS011;9224;52.422;13.024;2024-03-08T05:41:53;889.10;;;237.13;;
18196;SDS011;9224;52.422;13.024;2024-03-08T05:44:20;877.60;;;238.88;;
18196;SDS011;9224;52.422;13.024;2024-03-08T05:46:47;869.83;;;237.68;;
18196;SDS011;9224;52.422;13.024;2024-03-08T05:49:15;881.45;;;238.15;;
18196;SDS011;9224;52.422;13.024;2024-03-08T05:51:41;896.50;;;241.18;;
18196;SDS011;9224;52.422;13.024;2024-03-08T05:54:09;895.15;;;239.07;;
18196;SDS011;9224;52.422;13.024;2024-03-08T05:56:36;879.58;;;233.93;;
18196;SDS011;9224;52.422;13.024;2024-03-08T05:59:03;874.08;;;240.07;;
18196;SDS011;9224;52.422;13.024;2024-03-08T06:01:30;875.72;;;237.73;;
18196;SDS011;9224;52.422;13.024;2024-03-08T06:03:57;878.95;;;239.77;;
18196;SDS011;9224;52.422;13.024;2024-03-08T06:06:25;888.28;;;241.50;;
18196;SDS011;9224;52.422;13.024;2024-03-08T06:08:52;886.38;;;240.48;;
18196;SDS011;9224;52.422;13.024;2024-03-08T06:11:21;888.85;;;240.88;;
18196;SDS011;9224;52.422;13.024;2024-03-08T06:13:48;897.55;;;237.48;;
18196;SDS011;9224;52.422;13.024;2024-03-08T06:16:15;900.85;;;237.50;;
18196;SDS011;9224;52.422;13.024;2024-03-08T06:18:42;904.15;;;238.25;;
18196;SDS011;9224;52.422;13.024;2024-03-08T06:21:09;894.03;;;237.80;;
18196;SDS011;9224;52.422;13.024;2024-03-08T06:23:38;891.78;;;236.80;;
18196;SDS011;9224;52.422;13.024;2024-03-08T06:26:05;907.17;;;243.40;;
18196;SDS011;9224;52.422;13.024;2024-03-08T06:28:31;891.50;;;235.40;;
18196;SDS011;9224;52.422;13.024;2024-03-08T06:30:59;891.15;;;240.50;;
18196;SDS011;9224;52.422;13.024;2024-03-08T06:33:26;904.10;;;239.00;;
18196;SDS011;9224;52.422;13.024;2024-03-08T06:35:53;901.88;;;240.60;;
18196;SDS011;9224;52.422;13.024;2024-03-08T06:38:22;903.13;;;242.90;;
18196;SDS011;9224;52.422;13.024;2024-03-08T06:40:50;896.47;;;241.82;;
18196;SDS011;9224;52.422;13.024;2024-03-08T06:43:17;890.22;;;242.77;;
18196;SDS011;9224;52.422;13.024;2024-03-08T06:45:44;893.67;;;240.07;;
18196;SDS011;9224;52.422;13.024;2024-03-08T06:48:13;868.85;;;247.75;;
18196;SDS011;9224;52.422;13.024;2024-03-08T06:50:42;879.50;;;240.93;;
18196;SDS011;9224;52.422;13.024;2024-03-08T06:53:09;896.72;;;243.13;;
18196;SDS011;9224;52.422;13.024;2024-03-08T06:55:35;912.50;;;240.13;;
18196;SDS011;9224;52.422;13.024;2024-03-08T06:58:03;931.90;;;237.27;;
18196;SDS011;9224;52.422;13.024;2024-03-08T07:00:31;930.30;;;240.85;;
18196;SDS011;9224;52.422;13.024;2024-03-08T07:02:58;561.93;;;196.53;;
18196;SDS011;9224;52.422;13.024;2024-03-08T07:05:26;934.88;;;235.90;;
18196;SDS011;9224;52.422;13.024;2024-03-08T07:07:52;929.83;;;239.60;;
18196;SDS011;9224;52.422;13.024;2024-03-08T07:10:19;949.58;;;230.80;;
18196;SDS011;9224;52.422;13.024;2024-03-08T07:12:48;907.60;;;242.25;;
18196;SDS011;9224;52.422;13.024;2024-03-08T07:15:16;897.30;;;241.00;;
18196;SDS011;9224;52.422;13.024;2024-03-08T07:17:44;932.60;;;235.95;;
18196;SDS011;9224;52.422;13.024;2024-03-08T07:20:12;915.78;;;239.40;;
18196;SDS011;9224;52.422;13.024;2024-03-08T07:22:40;938.90;;;233.95;;
18196;SDS011;9224;52.422;13.024;2024-03-08T07:25:08;923.78;;;239.43;;
18196;SDS011;9224;52.422;13.024;2024-03-08T07:27:45;945.72;;;242.88;;
18196;SDS011;9224;52.422;13.024;2024-03-08T07:30:12;892.95;;;250.38;;
18196;SDS011;9224;52.422;13.024;2024-03-08T07:33:01;915.63;;;249.73;;
18196;SDS011;9224;52.422;13.024;2024-03-08T07:35:27;820.30;;;264.58;;
18196;SDS011;9224;52.422;13.024;2024-03-08T07:37:54;822.40;;;256.05;;
18196;SDS011;9224;52.422;13.024;2024-03-08T07:40:21;819.35;;;263.70;;
18196;SDS011;9224;52.422;13.024;2024-03-08T07:42:48;638.30;;;252.70;;
18196;SDS011;9224;52.422;13.024;2024-03-08T07:45:15;810.63;;;261.50;;
18196;SDS011;9224;52.422;13.024;2024-03-08T07:47:42;649.67;;;261.63;;
18196;SDS011;9224;52.422;13.024;2024-03-08T07:50:10;614.80;;;239.47;;
18196;SDS011;9224;52.422;13.024;2024-03-08T07:52:41;726.15;;;241.02;;
18196;SDS011;9224;52.422;13.024;2024-03-08T07:55:08;688.20;;;218.05;;
18196;SDS011;9224;52.422;13.024;2024-03-08T07:57:36;657.08;;;203.57;;
18196;SDS011;9224;52.422;13.024;2024-03-08T08:00:04;652.55;;;202.80;;
18196;SDS011;9224;52.422;13.024;2024-03-08T08:02:33;660.33;;;202.40;;
18196;SDS011;9224;52.422;13.024;2024-03-08T08:05:00;676.45;;;210.73;;
18196;SDS011;9224;52.422;13.024;2024-03-08T08:07:30;648.03;;;199.60;;
18196;SDS011;9224;52.422;13.024;2024-03-08T08:09:56;700.25;;;263.65;;
18196;SDS011;9224;52.422;13.024;2024-03-08T08:12:23;675.03;;;311.03;;
18196;SDS011;9224;52.422;13.024;2024-03-08T08:14:50;729.22;;;236.27;;
18196;SDS011;9224;52.422;13.024;2024-03-08T08:17:17;567.87;;;218.77;;
18196;SDS011;9224;52.422;13.024;2024-03-08T08:19:43;439.43;;;173.10;;
18196;SDS011;9224;52.422;13.024;2024-03-08T08:22:10;669.90;;;214.40;;
18196;SDS011;9224;52.422;13.024;2024-03-08T08:24:38;678.10;;;230.13;;
18196;SDS011;9224;52.422;13.024;2024-03-08T08:27:05;702.50;;;325.53;;
18196;SDS011;9224;52.422;13.024;2024-03-08T08:29:32;723.43;;;358.97;;
18196;SDS011;9224;52.422;13.024;2024-03-08T08:31:59;818.70;;;487.13;;
18196;SDS011;9224;52.422;13.024;2024-03-08T08:37:29;578.80;;;228.57;;
18196;SDS011;9224;52.422;13.024;2024-03-08T08:39:57;570.80;;;229.50;;
18196;SDS011;9224;52.422;13.024;2024-03-08T08:42:30;530.43;;;207.43;;
18196;SDS011;9224;52.422;13.024;2024-03-08T08:44:57;544.90;;;218.83;;
18196;SDS011;9224;52.422;13.024;2024-03-08T08:47:23;637.77;;;272.73;;
18196;SDS011;9224;52.422;13.024;2024-03-08T08:49:50;636.00;;;273.03;;
18196;SDS011;9224;52.422;13.024;2024-03-08T08:52:17;545.80;;;211.93;;
18196;SDS011;9224;52.422;13.024;2024-03-08T08:54:43;559.17;;;219.30;;
18196;SDS011;9224;52.422;13.024;2024-03-08T08:57:12;676.57;;;301.77;;
18196;SDS011;9224;52.422;13.024;2024-03-08T08:59:39;680.13;;;300.27;;
18196;SDS011;9224;52.422;13.024;2024-03-08T09:02:06;573.33;;;230.43;;
18196;SDS011;9224;52.422;13.024;2024-03-08T09:04:35;509.80;;;199.53;;
18196;SDS011;9224;52.422;13.024;2024-03-08T09:07:02;709.90;;;339.33;;
18196;SDS011;9224;52.422;13.024;2024-03-08T09:09:31;505.33;;;198.00;;
18196;SDS011;9224;52.422;13.024;2024-03-08T09:11:58;545.57;;;217.60;;
18196;SDS011;9224;52.422;13.024;2024-03-08T09:14:26;590.70;;;239.97;;
18196;SDS011;9224;52.422;13.024;2024-03-08T09:16:53;637.00;;;268.17;;
18196;SDS011;9224;52.422;13.024;2024-03-08T09:19:19;538.97;;;208.70;;
18196;SDS011;9224;52.422;13.024;2024-03-08T09:21:48;737.40;;;364.97;;
18196;SDS011;9224;52.422;13.024;2024-03-08T09:24:16;602.87;;;241.47;;
18196;SDS011;9224;52.422;13.024;2024-03-08T09:26:43;656.27;;;290.53;;
18196;SDS011;9224;52.422;13.024;2024-03-08T09:29:10;645.03;;;262.87;;
18196;SDS011;9224;52.422;13.024;2024-03-08T09:31:38;713.83;;;266.80;;
18196;SDS011;9224;52.422;13.024;2024-03-08T09:34:05;536.93;;;209.17;;
18196;SDS011;9224;52.422;13.024;2024-03-08T09:36:33;690.92;;;246.40;;
18196;SDS011;9224;52.422;13.024;2024-03-08T09:39:00;676.10;;;268.43;;
18196;SDS011;9224;52.422;13.024;2024-03-08T09:41:27;710.43;;;253.37;;
18196;SDS011;9224;52.422;13.024;2024-03-08T09:43:55;507.00;;;192.37;;
18196;SDS011;9224;52.422;13.024;2024-03-08T09:46:24;680.93;;;275.17;;
18196;SDS011;9224;52.422;13.024;2024-03-08T09:48:54;690.05;;;247.82;;
18196;SDS011;9224;52.422;13.024;2024-03-08T09:51:21;563.10;;;228.63;;
18196;SDS011;9224;52.422;13.024;2024-03-08T09:53:51;660.50;;;279.37;;
18196;SDS011;9224;52.422;13.024;2024-03-08T09:56:18;652.13;;;296.27;;
18196;SDS011;9224;52.422;13.024;2024-03-08T09:58:46;714.95;;;272.17;;
18196;SDS011;9224;52.422;13.024;2024-03-08T10:01:39;513.17;;;200.30;;
18196;SDS011;9224;52.422;13.024;2024-03-08T10:04:08;545.33;;;219.53;;
18196;SDS011;9224;52.422;13.024;2024-03-08T10:06:36;711.58;;;266.52;;
18196;SDS011;9224;52.422;13.024;2024-03-08T10:09:02;685.33;;;276.73;;
18196;SDS011;9224;52.422;13.024;2024-03-08T10:11:32;718.75;;;273.77;;
18196;SDS011;9224;52.422;13.024;2024-03-08T10:14:00;698.10;;;308.57;;
18196;SDS011;9224;52.422;13.024;2024-03-08T10:16:29;601.43;;;257.17;;
18196;SDS011;9224;52.422;13.024;2024-03-08T10:18:56;731.35;;;286.42;;
18196;SDS011;9224;52.422;13.024;2024-03-08T10:21:24;442.00;;;179.43;;
18196;SDS011;9224;52.422;13.024;2024-03-08T10:23:51;584.30;;;251.73;;
18196;SDS011;9224;52.422;13.024;2024-03-08T10:26:19;595.87;;;255.80;;
18196;SDS011;9224;52.422;13.024;2024-03-08T10:28:48;736.00;;;313.73;;
18196;SDS011;9224;52.422;13.024;2024-03-08T10:31:15;530.20;;;216.30;;
18196;SDS011;9224;52.422;13.024;2024-03-08T10:33:42;740.75;;;295.75;;
18196;SDS011;9224;52.422;13.024;2024-03-08T10:36:10;514.27;;;207.03;;
18196;SDS011;9224;52.422;13.024;2024-03-08T10:38:40;492.97;;;198.73;;
18196;SDS011;9224;52.422;13.024;2024-03-08T10:41:08;753.38;;;299.63;;
18196;SDS011;9224;52.422;13.024;2024-03-08T10:43:40;808.50;;;291.00;;
18196;SDS011;9224;52.422;13.024;2024-03-08T10:46:29;527.93;;;220.40;;
18196;SDS011;9224;52.422;13.024;2024-03-08T10:49:06;734.63;;;297.55;;
18196;SDS011;9224;52.422;13.024;2024-03-08T10:51:34;656.57;;;296.57;;
18196;SDS011;9224;52.422;13.024;2024-03-08T10:54:04;734.65;;;303.65;;
18196;SDS011;9224;52.422;13.024;2024-03-08T10:56:32;293.23;;;150.20;;
18196;SDS011;9224;52.422;13.024;2024-03-08T10:58:59;350.07;;;163.27;;
18196;SDS011;9224;52.422;13.024;2024-03-08T11:01:25;438.67;;;194.30;;
18196;SDS011;9224;52.422;13.024;2024-03-08T11:03:52;446.27;;;198.23;;
18196;SDS011;9224;52.422;13.024;2024-03-08T11:06:29;554.43;;;248.40;;
18196;SDS011;9224;52.422;13.024;2024-03-08T11:08:57;655.20;;;317.83;;
18196;SDS011;9224;52.422;13.024;2024-03-08T11:11:25;761.83;;;327.43;;
18196;SDS011;9224;52.422;13.024;2024-03-08T11:13:55;754.77;;;324.30;;
18196;SDS011;9224;52.422;13.024;2024-03-08T11:16:37;758.20;;;324.80;;
18196;SDS011;9224;52.422;13.024;2024-03-08T11:19:22;403.80;;;179.27;;
18196;SDS011;9224;52.422;13.024;2024-03-08T11:21:57;409.93;;;181.10;;
18196;SDS011;9224;52.422;13.024;2024-03-08T11:24:25;417.73;;;185.17;;
18196;SDS011;9224;52.422;13.024;2024-03-08T11:26:55;399.30;;;179.93;;
18196;SDS011;9224;52.422;13.024;2024-03-08T11:29:36;398.37;;;180.20;;
18196;SDS011;9224;52.422;13.024;2024-03-08T11:32:05;331.07;;;157.30;;
18196;SDS011;9224;52.422;13.024;2024-03-08T11:34:33;334.93;;;155.43;;
18196;SDS011;9224;52.422;13.024;2024-03-08T11:37:00;292.90;;;151.07;;
18196;SDS011;9224;52.422;13.024;2024-03-08T11:39:27;301.00;;;149.83;;
18196;SDS011;9224;52.422;13.024;2024-03-08T11:41:57;283.97;;;149.93;;
18196;SDS011;9224;52.422;13.024;2024-03-08T11:44:26;303.57;;;155.73;;
18196;SDS011;9224;52.422;13.024;2024-03-08T11:46:53;284.47;;;147.43;;
18196;SDS011;9224;52.422;13.024;2024-03-08T11:49:20;263.37;;;144.03;;
18196;SDS011;9224;52.422;13.024;2024-03-08T11:51:47;273.87;;;148.50;;
18196;SDS011;9224;52.422;13.024;2024-03-08T11:54:17;260.80;;;145.77;;
18196;SDS011;9224;52.422;13.024;2024-03-08T11:56:44;260.60;;;146.67;;
18196;SDS011;9224;52.422;13.024;2024-03-08T11:59:13;271.07;;;148.13;;
18196;SDS011;9224;52.422;13.024;2024-03-08T12:01:40;252.70;;;144.57;;
18196;SDS011;9224;52.422;13.024;2024-03-08T12:04:11;251.43;;;144.57;;
18196;SDS011;9224;52.422;13.024;2024-03-08T12:06:38;245.07;;;143.30;;
18196;SDS011;9224;52.422;13.024;2024-03-08T12:09:07;250.03;;;143.77;;
18196;SDS011;9224;52.422;13.024;2024-03-08T12:11:35;247.13;;;142.80;;
18196;SDS011;9224;52.422;13.024;2024-03-08T12:14:02;238.20;;;142.83;;
18196;SDS011;9224;52.422;13.024;2024-03-08T12:16:30;235.97;;;142.43;;
18196;SDS011;9224;52.422;13.024;2024-03-08T12:18:57;230.90;;;141.20;;
18196;SDS011;9224;52.422;13.024;2024-03-08T12:21:25;230.40;;;140.73;;
18196;SDS011;9224;52.422;13.024;2024-03-08T12:24:04;242.37;;;142.60;;
18196;SDS011;9224;52.422;13.024;2024-03-08T12:26:34;229.27;;;139.90;;
18196;SDS011;9224;52.422;13.024;2024-03-08T12:29:14;232.23;;;142.00;;
18196;SDS011;9224;52.422;13.024;2024-03-08T12:31:44;230.03;;;140.73;;
18196;SDS011;9224;52.422;13.024;2024-03-08T12:34:11;224.97;;;140.13;;
18196;SDS011;9224;52.422;13.024;2024-03-08T12:36:43;229.50;;;141.10;;
18196;SDS011;9224;52.422;13.024;2024-03-08T12:39:12;228.97;;;139.80;;
18196;SDS011;9224;52.422;13.024;2024-03-08T12:41:41;232.10;;;140.67;;
18196;SDS011;9224;52.422;13.024;2024-03-08T12:44:08;250.53;;;143.00;;
18196;SDS011;9224;52.422;13.024;2024-03-08T12:46:36;276.30;;;148.43;;
18196;SDS011;9224;52.422;13.024;2024-03-08T12:49:07;287.17;;;149.87;;
18196;SDS011;9224;52.422;13.024;2024-03-08T12:51:36;294.57;;;150.13;;
18196;SDS011;9224;52.422;13.024;2024-03-08T12:54:04;496.13;;;245.07;;
18196;SDS011;9224;52.422;13.024;2024-03-08T12:56:32;376.70;;;174.43;;
18196;SDS011;9224;52.422;13.024;2024-03-08T12:59:00;413.97;;;194.10;;
18196;SDS011;9224;52.422;13.024;2024-03-08T13:01:28;377.67;;;174.70;;
18196;SDS011;9224;52.422;13.024;2024-03-08T13:03:55;545.47;;;260.57;;
18196;SDS011;9224;52.422;13.024;2024-03-08T13:06:23;782.77;;;379.17;;
18196;SDS011;9224;52.422;13.024;2024-03-08T13:08:50;324.70;;;155.27;;
18196;SDS011;9224;52.422;13.024;2024-03-08T13:11:17;483.67;;;215.60;;
18196;SDS011;9224;52.422;13.024;2024-03-08T13:13:44;484.20;;;229.37;;
18196;SDS011;9224;52.422;13.024;2024-03-08T13:16:11;350.90;;;161.70;;
18196;SDS011;9224;52.422;13.024;2024-03-08T13:18:40;517.60;;;248.07;;
18196;SDS011;9224;52.422;13.024;2024-03-08T13:21:08;434.47;;;190.43;;
18196;SDS011;9224;52.422;13.024;2024-03-08T13:23:37;775.70;;;380.47;;
18196;SDS011;9224;52.422;13.024;2024-03-08T13:26:05;757.40;;;360.00;;
18196;SDS011;9224;52.422;13.024;2024-03-08T13:28:33;748.67;;;340.03;;
18196;SDS011;9224;52.422;13.024;2024-03-08T13:31:02;471.13;;;199.07;;
18196;SDS011;9224;52.422;13.024;2024-03-08T13:33:32;610.57;;;287.13;;
18196;SDS011;9224;52.422;13.024;2024-03-08T13:36:04;527.60;;;234.03;;
18196;SDS011;9224;52.422;13.024;2024-03-08T13:38:34;594.53;;;272.17;;
18196;SDS011;9224;52.422;13.024;2024-03-08T13:41:03;599.63;;;279.80;;
18196;SDS011;9224;52.422;13.024;2024-03-08T13:43:30;599.23;;;279.43;;
18196;SDS011;9224;52.422;13.024;2024-03-08T13:45:59;560.20;;;255.53;;
18196;SDS011;9224;52.422;13.024;2024-03-08T13:48:26;623.20;;;302.50;;
18196;SDS011;9224;52.422;13.024;2024-03-08T13:50:53;450.87;;;203.20;;
18196;SDS011;9224;52.422;13.024;2024-03-08T13:53:20;294.53;;;150.67;;
18196;SDS011;9224;52.422;13.024;2024-03-08T13:55:48;308.87;;;154.00;;
18196;SDS011;9224;52.422;13.024;2024-03-08T13:58:15;314.33;;;157.37;;
18196;SDS011;9224;52.422;13.024;2024-03-08T14:00:42;310.60;;;155.50;;
18196;SDS011;9224;52.422;13.024;2024-03-08T14:03:11;296.80;;;152.20;;